CSC779 ZUTF-ZSPD
Flight info
| Callsign | CSC779 |
|---|---|
| Flight time | N/A |
| Altitude | 35100 |
| Route | UBRA9C UBRAB B213 VELPU W550 OTLOS V38 TOSIM B213 WHA R343 SASAN |
| Aircraft | A20N/M-SDE2E3GHIJ1J3J4J5LM1ORWXYZ/LB1D1 |
Departure
| Time | N/A |
|---|---|
| Airport | Chengdu Tianfu International Airport (ZUTF) |
Arrival
| Time | 2026-05-07 09:55 |
|---|---|
| Airport | Shanghai Pudong International Airport (ZSPD) |
| Time | Latitude | Longitude | Altitude | Speed | Heading |
|---|---|---|---|---|---|
| 2026-05-07 09:11 | 31.76377 | 117.29988 | 35155 ft | 500 kts | 83° |
| 2026-05-07 09:11 | 31.76849 | 117.38069 | 35156 ft | 499 kts | 92° |
| 2026-05-07 09:12 | 31.76437 | 117.46197 | 35157 ft | 498 kts | 96° |
| 2026-05-07 09:12 | 31.75834 | 117.54270 | 35159 ft | 498 kts | 96° |
| 2026-05-07 09:13 | 31.75245 | 117.62405 | 35157 ft | 498 kts | 96° |
| 2026-05-07 09:13 | 31.74677 | 117.70466 | 35157 ft | 498 kts | 97° |
| 2026-05-07 09:14 | 31.74108 | 117.78559 | 35158 ft | 498 kts | 97° |
| 2026-05-07 09:14 | 31.73529 | 117.86664 | 35159 ft | 498 kts | 97° |
| 2026-05-07 09:15 | 31.72949 | 117.94740 | 35153 ft | 497 kts | 97° |
| 2026-05-07 09:15 | 31.72378 | 118.02792 | 35137 ft | 497 kts | 96° |
| 2026-05-07 09:16 | 31.71780 | 118.10904 | 35114 ft | 497 kts | 97° |
| 2026-05-07 09:16 | 31.71200 | 118.18905 | 35099 ft | 498 kts | 96° |
| 2026-05-07 09:17 | 31.70641 | 118.27020 | 35090 ft | 498 kts | 96° |
| 2026-05-07 09:17 | 31.70076 | 118.35086 | 35093 ft | 498 kts | 96° |
| 2026-05-07 09:18 | 31.69504 | 118.43167 | 35099 ft | 498 kts | 96° |
| 2026-05-07 09:18 | 31.68924 | 118.51253 | 34834 ft | 498 kts | 96° |
| 2026-05-07 09:19 | 31.68630 | 118.55325 | 34711 ft | 498 kts | 96° |
| 2026-05-07 09:19 | 31.68338 | 118.59370 | 34585 ft | 499 kts | 96° |
| 2026-05-07 09:19 | 31.68045 | 118.63397 | 34460 ft | 499 kts | 96° |
| 2026-05-07 09:19 | 31.67777 | 118.67065 | 34345 ft | 499 kts | 97° |
| 2026-05-07 09:20 | 31.67531 | 118.70421 | 34241 ft | 500 kts | 97° |
| 2026-05-07 09:20 | 31.67240 | 118.74400 | 34120 ft | 500 kts | 97° |
| 2026-05-07 09:20 | 31.66942 | 118.78450 | 33997 ft | 500 kts | 97° |
| 2026-05-07 09:20 | 31.66641 | 118.82513 | 33871 ft | 500 kts | 97° |
| 2026-05-07 09:21 | 31.66342 | 118.86545 | 33748 ft | 500 kts | 97° |
| 2026-05-07 09:21 | 31.66040 | 118.90586 | 33624 ft | 499 kts | 97° |
| 2026-05-07 09:21 | 31.65735 | 118.94635 | 33501 ft | 499 kts | 97° |
| 2026-05-07 09:21 | 31.65427 | 118.98699 | 33377 ft | 499 kts | 97° |
| 2026-05-07 09:22 | 31.65121 | 119.02734 | 33252 ft | 498 kts | 97° |
| 2026-05-07 09:22 | 31.64849 | 119.06759 | 33130 ft | 498 kts | 96° |
| 2026-05-07 09:22 | 31.64643 | 119.10821 | 33005 ft | 498 kts | 95° |
| 2026-05-07 09:22 | 31.64455 | 119.14893 | 32880 ft | 498 kts | 95° |
| 2026-05-07 09:23 | 31.64279 | 119.18925 | 32756 ft | 498 kts | 95° |
| 2026-05-07 09:23 | 31.64107 | 119.22936 | 32634 ft | 498 kts | 95° |
| 2026-05-07 09:23 | 31.63929 | 119.27034 | 32507 ft | 497 kts | 95° |
| 2026-05-07 09:23 | 31.63748 | 119.31081 | 32383 ft | 497 kts | 95° |
| 2026-05-07 09:24 | 31.63565 | 119.35110 | 32259 ft | 497 kts | 95° |
| 2026-05-07 09:24 | 31.63378 | 119.39136 | 32136 ft | 497 kts | 95° |
| 2026-05-07 09:24 | 31.63188 | 119.43148 | 32013 ft | 497 kts | 95° |
| 2026-05-07 09:24 | 31.62995 | 119.47192 | 31889 ft | 497 kts | 95° |
| 2026-05-07 09:25 | 31.62802 | 119.51251 | 31764 ft | 497 kts | 95° |
| 2026-05-07 09:25 | 31.62609 | 119.55281 | 31639 ft | 496 kts | 95° |
| 2026-05-07 09:25 | 31.62415 | 119.59322 | 31511 ft | 496 kts | 95° |
| 2026-05-07 09:25 | 31.62221 | 119.63320 | 31137 ft | 490 kts | 95° |
| 2026-05-07 09:26 | 31.62037 | 119.67127 | 30775 ft | 484 kts | 96° |
| 2026-05-07 09:26 | 31.61851 | 119.71092 | 30398 ft | 483 kts | 96° |
| 2026-05-07 09:26 | 31.61673 | 119.74995 | 30025 ft | 482 kts | 96° |
| 2026-05-07 09:26 | 31.61493 | 119.78922 | 29650 ft | 482 kts | 96° |
| 2026-05-07 09:27 | 31.61315 | 119.82823 | 29273 ft | 476 kts | 96° |
| 2026-05-07 09:27 | 31.61138 | 119.86664 | 28896 ft | 466 kts | 96° |
| 2026-05-07 09:27 | 31.60793 | 119.94083 | 28146 ft | 449 kts | 96° |
| 2026-05-07 09:28 | 31.60622 | 119.97699 | 27771 ft | 441 kts | 96° |
| 2026-05-07 09:28 | 31.60452 | 120.01260 | 27393 ft | 433 kts | 96° |
| 2026-05-07 09:28 | 31.60406 | 120.02226 | 27290 ft | 431 kts | 96° |
| 2026-05-07 09:28 | 31.60233 | 120.05814 | 26903 ft | 424 kts | 96° |
| 2026-05-07 09:29 | 31.60069 | 120.09210 | 26529 ft | 418 kts | 96° |
| 2026-05-07 09:29 | 31.59895 | 120.12703 | 26158 ft | 438 kts | 96° |
| 2026-05-07 09:29 | 31.59718 | 120.16261 | 25785 ft | 442 kts | 96° |
| 2026-05-07 09:29 | 31.59542 | 120.19847 | 25410 ft | 441 kts | 96° |
| 2026-05-07 09:30 | 31.59366 | 120.23449 | 25031 ft | 438 kts | 96° |
| 2026-05-07 09:30 | 31.59175 | 120.26986 | 24656 ft | 434 kts | 98° |
| 2026-05-07 09:30 | 31.58808 | 120.30450 | 24282 ft | 428 kts | 102° |
| 2026-05-07 09:30 | 31.58221 | 120.33814 | 23910 ft | 423 kts | 107° |
| 2026-05-07 09:31 | 31.57405 | 120.37135 | 23531 ft | 419 kts | 111° |
| 2026-05-07 09:31 | 31.56483 | 120.40313 | 23161 ft | 415 kts | 111° |
| 2026-05-07 09:31 | 31.55540 | 120.43490 | 22787 ft | 412 kts | 111° |
| 2026-05-07 09:31 | 31.54590 | 120.46679 | 22408 ft | 409 kts | 111° |
| 2026-05-07 09:32 | 31.53669 | 120.49779 | 22037 ft | 406 kts | 111° |
| 2026-05-07 09:32 | 31.52745 | 120.52893 | 21661 ft | 404 kts | 111° |
| 2026-05-07 09:32 | 31.51818 | 120.56022 | 21282 ft | 401 kts | 111° |
| 2026-05-07 09:32 | 31.50913 | 120.59075 | 20909 ft | 398 kts | 111° |
| 2026-05-07 09:33 | 31.50012 | 120.62115 | 20535 ft | 396 kts | 110° |
| 2026-05-07 09:33 | 31.49107 | 120.65163 | 20158 ft | 394 kts | 111° |
| 2026-05-07 09:33 | 31.48224 | 120.68150 | 19787 ft | 391 kts | 111° |
| 2026-05-07 09:33 | 31.47336 | 120.71150 | 19411 ft | 389 kts | 111° |
| 2026-05-07 09:34 | 31.46457 | 120.74113 | 19037 ft | 386 kts | 111° |
| 2026-05-07 09:34 | 31.45575 | 120.77074 | 18661 ft | 384 kts | 110° |
| 2026-05-07 09:34 | 31.44687 | 120.80035 | 18283 ft | 382 kts | 111° |
| 2026-05-07 09:34 | 31.43792 | 120.82932 | 17909 ft | 380 kts | 111° |
| 2026-05-07 09:35 | 31.42891 | 120.85820 | 17535 ft | 378 kts | 111° |
| 2026-05-07 09:35 | 31.41988 | 120.88710 | 17158 ft | 376 kts | 111° |
| 2026-05-07 09:35 | 31.41087 | 120.91552 | 16782 ft | 374 kts | 113° |
| 2026-05-07 09:35 | 31.39971 | 120.94326 | 16403 ft | 372 kts | 119° |
| 2026-05-07 09:36 | 31.38617 | 120.96884 | 16027 ft | 370 kts | 125° |
| 2026-05-07 09:36 | 31.37057 | 120.99255 | 15655 ft | 369 kts | 129° |
| 2026-05-07 09:36 | 31.35433 | 121.01563 | 15278 ft | 367 kts | 130° |
| 2026-05-07 09:36 | 31.33814 | 121.03841 | 14900 ft | 361 kts | 130° |
| 2026-05-07 09:37 | 31.32245 | 121.06051 | 14527 ft | 354 kts | 130° |
| 2026-05-07 09:37 | 31.30680 | 121.08257 | 14149 ft | 348 kts | 130° |
| 2026-05-07 09:37 | 31.29150 | 121.10419 | 13770 ft | 342 kts | 130° |
| 2026-05-07 09:37 | 31.27653 | 121.12534 | 13395 ft | 336 kts | 130° |
| 2026-05-07 09:38 | 31.26170 | 121.14628 | 13018 ft | 331 kts | 130° |
| 2026-05-07 09:38 | 31.24724 | 121.16670 | 12615 ft | 328 kts | 130° |
| 2026-05-07 09:38 | 31.23272 | 121.18721 | 12109 ft | 327 kts | 130° |
| 2026-05-07 09:38 | 31.21836 | 121.20747 | 11613 ft | 327 kts | 130° |
| 2026-05-07 09:39 | 31.20855 | 121.22132 | 11273 ft | 326 kts | 130° |
| 2026-05-07 09:39 | 31.19197 | 121.24469 | 10698 ft | 325 kts | 130° |
| 2026-05-07 09:39 | 31.17773 | 121.26476 | 10203 ft | 324 kts | 129° |
| 2026-05-07 09:39 | 31.16325 | 121.28514 | 9698 ft | 323 kts | 129° |
| 2026-05-07 09:40 | 31.14908 | 121.30509 | 9212 ft | 322 kts | 129° |
| 2026-05-07 09:40 | 31.13495 | 121.32497 | 9051 ft | 309 kts | 129° |
| 2026-05-07 09:40 | 31.12121 | 121.34364 | 8932 ft | 309 kts | 131° |
| 2026-05-07 09:40 | 31.10627 | 121.36235 | 8804 ft | 314 kts | 133° |
| 2026-05-07 09:41 | 31.09132 | 121.38077 | 8679 ft | 314 kts | 133° |
| 2026-05-07 09:41 | 31.07647 | 121.39906 | 8537 ft | 307 kts | 133° |
| 2026-05-07 09:41 | 31.06200 | 121.41687 | 8358 ft | 296 kts | 133° |
| 2026-05-07 09:41 | 31.04824 | 121.43381 | 8181 ft | 286 kts | 133° |
| 2026-05-07 09:42 | 31.03478 | 121.45037 | 8004 ft | 276 kts | 133° |
| 2026-05-07 09:42 | 31.02164 | 121.46654 | 7831 ft | 275 kts | 133° |
| 2026-05-07 09:42 | 31.00843 | 121.48279 | 7655 ft | 274 kts | 133° |
| 2026-05-07 09:42 | 30.99540 | 121.49881 | 7481 ft | 273 kts | 133° |
| 2026-05-07 09:43 | 30.98231 | 121.51488 | 7306 ft | 272 kts | 133° |
| 2026-05-07 09:43 | 30.96933 | 121.53083 | 7131 ft | 271 kts | 132° |
| 2026-05-07 09:43 | 30.95638 | 121.54672 | 6952 ft | 264 kts | 132° |
| 2026-05-07 09:43 | 30.94409 | 121.56180 | 6776 ft | 256 kts | 132° |
| 2026-05-07 09:44 | 30.93190 | 121.57674 | 6596 ft | 247 kts | 132° |
| 2026-05-07 09:44 | 30.92026 | 121.59100 | 6418 ft | 239 kts | 132° |
| 2026-05-07 09:44 | 30.90908 | 121.60471 | 6241 ft | 232 kts | 132° |
| 2026-05-07 09:44 | 30.89798 | 121.61829 | 6068 ft | 230 kts | 131° |
| 2026-05-07 09:45 | 30.88861 | 121.62967 | 5912 ft | 224 kts | 132° |
| 2026-05-07 09:45 | 30.87809 | 121.64239 | 5733 ft | 217 kts | 131° |
| 2026-05-07 09:45 | 30.86775 | 121.65494 | 5551 ft | 210 kts | 131° |
| 2026-05-07 09:45 | 30.85788 | 121.66708 | 5323 ft | 206 kts | 129° |
| 2026-05-07 09:46 | 30.85082 | 121.68105 | 5043 ft | 201 kts | 99° |
| 2026-05-07 09:46 | 30.85134 | 121.69710 | 4809 ft | 196 kts | 78° |
| 2026-05-07 09:46 | 30.85494 | 121.71217 | 4666 ft | 186 kts | 73° |
| 2026-05-07 09:46 | 30.85886 | 121.72613 | 4424 ft | 180 kts | 72° |
| 2026-05-07 09:47 | 30.86272 | 121.73975 | 4171 ft | 177 kts | 72° |
| 2026-05-07 09:47 | 30.86656 | 121.75344 | 3917 ft | 174 kts | 72° |
| 2026-05-07 09:47 | 30.87019 | 121.76663 | 3662 ft | 170 kts | 72° |
| 2026-05-07 09:47 | 30.87367 | 121.77955 | 3407 ft | 165 kts | 72° |
| 2026-05-07 09:48 | 30.87726 | 121.79198 | 3150 ft | 161 kts | 64° |
| 2026-05-07 09:48 | 30.88292 | 121.80287 | 3003 ft | 151 kts | 56° |
| 2026-05-07 09:48 | 30.88908 | 121.81293 | 3007 ft | 152 kts | 54° |
| 2026-05-07 09:48 | 30.89530 | 121.82280 | 2997 ft | 154 kts | 54° |
| 2026-05-07 09:49 | 30.90188 | 121.83279 | 2997 ft | 155 kts | 47° |
| 2026-05-07 09:49 | 30.91155 | 121.83841 | 3001 ft | 160 kts | 15° |
| 2026-05-07 09:49 | 30.92257 | 121.84032 | 3003 ft | 162 kts | 11° |
| 2026-05-07 09:49 | 30.93374 | 121.84174 | 3000 ft | 161 kts | 10° |
| 2026-05-07 09:50 | 30.94501 | 121.84317 | 2999 ft | 163 kts | 10° |
| 2026-05-07 09:50 | 30.95625 | 121.84465 | 2996 ft | 162 kts | 10° |
| 2026-05-07 09:50 | 30.96730 | 121.84609 | 2996 ft | 162 kts | 9° |
| 2026-05-07 09:50 | 30.97863 | 121.84615 | 2969 ft | 164 kts | 359° |
| 2026-05-07 09:51 | 30.98984 | 121.84418 | 2779 ft | 160 kts | 352° |
| 2026-05-07 09:51 | 31.00044 | 121.84113 | 2562 ft | 155 kts | 349° |
| 2026-05-07 09:51 | 31.01069 | 121.83767 | 2348 ft | 150 kts | 348° |
| 2026-05-07 09:51 | 31.02031 | 121.83415 | 2192 ft | 141 kts | 347° |
| 2026-05-07 09:52 | 31.02939 | 121.83073 | 1989 ft | 136 kts | 347° |
| 2026-05-07 09:52 | 31.03844 | 121.82731 | 1808 ft | 135 kts | 347° |
| 2026-05-07 09:52 | 31.04733 | 121.82394 | 1630 ft | 134 kts | 347° |
| 2026-05-07 09:52 | 31.05613 | 121.82059 | 1450 ft | 133 kts | 347° |
| 2026-05-07 09:53 | 31.06462 | 121.81738 | 1278 ft | 132 kts | 347° |
| 2026-05-07 09:53 | 31.07319 | 121.81414 | 1105 ft | 131 kts | 347° |
| 2026-05-07 09:53 | 31.08190 | 121.81084 | 930 ft | 130 kts | 347° |
| 2026-05-07 09:53 | 31.09049 | 121.80759 | 759 ft | 130 kts | 347° |
| 2026-05-07 09:54 | 31.09911 | 121.80433 | 586 ft | 129 kts | 347° |
| 2026-05-07 09:54 | 31.10756 | 121.80114 | 408 ft | 128 kts | 347° |
| 2026-05-07 09:54 | 31.11595 | 121.79793 | 248 ft | 127 kts | 346° |
| 2026-05-07 09:54 | 31.12430 | 121.79480 | 79 ft | 126 kts | 347° |
| 2026-05-07 09:55 | 31.13231 | 121.79188 | 22 ft | 102 kts | 344° |
| 2026-05-07 09:55 | 31.13743 | 121.78993 | 22 ft | 53 kts | 342° |
| 2026-05-07 09:55 | 31.13994 | 121.78899 | 22 ft | 33 kts | 343° |
| 2026-05-07 09:55 | 31.14211 | 121.78877 | 22 ft | 29 kts | 4° |
| 2026-05-07 09:56 | 31.14408 | 121.78916 | 22 ft | 27 kts | 9° |
| 2026-05-07 09:56 | 31.14587 | 121.78884 | 22 ft | 26 kts | 342° |
| 2026-05-07 09:56 | 31.14692 | 121.78844 | 22 ft | 8 kts | 345° |
| 2026-05-07 09:56 | 31.14744 | 121.78867 | 22 ft | 8 kts | 56° |
| 2026-05-07 09:57 | 31.14768 | 121.78950 | 22 ft | 14 kts | 72° |
| 2026-05-07 09:57 | 31.14807 | 121.79091 | 22 ft | 21 kts | 72° |
| 2026-05-07 09:57 | 31.14860 | 121.79281 | 22 ft | 27 kts | 72° |
| 2026-05-07 09:57 | 31.14919 | 121.79491 | 22 ft | 17 kts | 71° |
| 2026-05-07 09:58 | 31.14934 | 121.79558 | 22 ft | 7 kts | 91° |
| 2026-05-07 09:58 | 31.14909 | 121.79615 | 22 ft | 8 kts | 142° |
| 2026-05-07 09:58 | 31.14851 | 121.79640 | 22 ft | 9 kts | 162° |
| 2026-05-07 09:58 | 31.14785 | 121.79665 | 22 ft | 10 kts | 162° |
| 2026-05-07 09:59 | 31.14715 | 121.79693 | 22 ft | 11 kts | 161° |
| 2026-05-07 09:59 | 31.14640 | 121.79726 | 22 ft | 11 kts | 159° |
| 2026-05-07 09:59 | 31.14561 | 121.79755 | 22 ft | 12 kts | 163° |
| 2026-05-07 09:59 | 31.14491 | 121.79781 | 22 ft | 7 kts | 159° |
| 2026-05-07 10:00 | 31.14455 | 121.79824 | 22 ft | 7 kts | 105° |
| 2026-05-07 10:00 | 31.14465 | 121.79886 | 22 ft | 8 kts | 71° |
| 2026-05-07 10:00 | 31.14485 | 121.79956 | 22 ft | 9 kts | 71° |
| 2026-05-07 10:00 | 31.14506 | 121.80034 | 22 ft | 10 kts | 72° |
| 2026-05-07 10:01 | 31.14535 | 121.80100 | 22 ft | 8 kts | 36° |
| 2026-05-07 10:01 | 31.14598 | 121.80108 | 22 ft | 9 kts | 343° |
| 2026-05-07 10:01 | 31.14667 | 121.80083 | 22 ft | 10 kts | 342° |
| 2026-05-07 10:01 | 31.14720 | 121.80062 | 22 ft | 5 kts | 338° |
| 2026-05-07 10:02 | 31.14743 | 121.80033 | 22 ft | 5 kts | 287° |
| 2026-05-07 10:02 | 31.14739 | 121.79996 | 22 ft | 4 kts | 250° |
| 2026-05-07 10:02 | 31.14732 | 121.79974 | 22 ft | 0 kts | 251° |